Time,TemperatureF,DewpointF,PressureIn,WindDirection,WindDirectionDegrees,WindSpeedMPH,WindSpeedGustMPH,Humidity,HourlyPrecipIn,Conditions,Clouds,dailyrainin,SoftwareType,DateUTC
2013-06-04 00:01:00,56.7,51.3,30.03,ENE,68,0.0,0.0,82,0.00,,CLR,0.00,VWS V12.08,2013-06-04 04:01:00,
2013-06-04 00:02:00,56.7,51.3,30.03,ENE,68,0.0,0.0,82,0.00,,CLR,0.00,VWS V12.08,2013-06-04 04:02:00,
2013-06-04 00:07:00,56.5,51.1,30.03,ENE,68,0.0,0.0,82,0.00,,CLR,0.00,VWS V12.08,2013-06-04 04:07:00,
2013-06-04 00:12:00,56.5,51.1,30.03,ENE,68,0.0,0.0,82,0.00,,CLR,0.00,VWS V12.08,2013-06-04 04:12:00,
2013-06-04 00:17:00,56.5,51.4,30.03,ENE,68,0.0,0.0,83,0.00,,CLR,0.00,VWS V12.08,2013-06-04 04:17:00,
2013-06-04 00:22:00,56.5,51.4,30.03,ENE,68,0.0,0.0,83,0.00,,CLR,0.00,VWS V12.08,2013-06-04 04:22:00,
2013-06-04 00:27:00,56.5,51.8,30.03,ENE,68,0.0,0.0,84,0.00,,CLR,0.00,VWS V12.08,2013-06-04 04:27:00,
2013-06-04 00:32:00,56.5,51.8,30.03,ENE,68,0.0,0.0,84,0.00,,CLR,0.00,VWS V12.08,2013-06-04 04:32:00,
2013-06-04 00:37:00,56.3,51.9,30.03,ENE,68,0.0,0.0,85,0.00,,CLR,0.00,VWS V12.08,2013-06-04 04:37:00,
2013-06-04 00:42:00,56.3,51.9,30.03,ENE,68,0.0,0.0,85,0.00,,CLR,0.00,VWS V12.08,2013-06-04 04:42:00,
2013-06-04 00:47:00,56.3,51.9,30.00,ENE,68,0.0,0.0,85,0.00,,CLR,0.00,VWS V12.08,2013-06-04 04:47:00,
2013-06-04 00:52:00,56.2,51.7,30.00,ENE,68,0.0,0.0,85,0.00,,CLR,0.00,VWS V12.08,2013-06-04 04:52:00,
2013-06-04 00:57:00,56.2,52.0,30.00,ENE,68,0.0,0.0,86,0.00,,CLR,0.00,VWS V12.08,2013-06-04 04:57:00,
2013-06-04 01:02:00,55.8,52.6,30.03,ENE,68,0.0,0.0,89,0.00,,CLR,0.00,VWS V12.08,2013-06-04 05:02:00,
2013-06-04 01:07:00,55.6,52.4,30.03,NE,42,3.1,3.1,89,0.00,,CLR,0.00,VWS V12.08,2013-06-04 05:07:00,
2013-06-04 01:12:00,55.4,52.6,30.03,NE,42,0.0,0.0,90,0.00,,CLR,0.00,VWS V12.08,2013-06-04 05:12:00,
2013-06-04 01:17:00,55.3,52.7,30.03,NE,42,0.0,0.0,91,0.00,,CLR,0.00,VWS V12.08,2013-06-04 05:17:00,
2013-06-04 01:22:00,55.1,52.5,30.03,NE,42,0.0,0.0,91,0.00,,CLR,0.00,VWS V12.08,2013-06-04 05:22:00,
2013-06-04 01:27:00,54.9,52.6,30.03,NE,42,0.0,0.0,92,0.00,,CLR,0.00,VWS V12.08,2013-06-04 05:27:00,
2013-06-04 01:32:00,54.9,52.6,30.03,NE,42,0.0,0.0,92,0.00,,CLR,0.00,VWS V12.08,2013-06-04 05:32:00,
2013-06-04 01:37:00,55.3,53.3,30.03,NE,42,3.1,3.1,93,0.00,,CLR,0.00,VWS V12.08,2013-06-04 05:37:00,
2013-06-04 01:42:00,55.3,53.6,30.03,NE,42,2.2,2.7,94,0.00,,CLR,0.00,VWS V12.08,2013-06-04 05:42:00,
2013-06-04 01:47:00,55.3,53.6,30.03,NE,42,2.7,2.7,94,0.00,,CLR,0.00,VWS V12.08,2013-06-04 05:47:00,
2013-06-04 01:52:00,55.3,53.9,30.03,NE,43,3.1,3.1,95,0.00,,CLR,0.00,VWS V12.08,2013-06-04 05:52:00,
2013-06-04 01:57:00,55.4,54.3,30.03,NE,41,3.6,4.9,96,0.00,,CLR,0.00,VWS V12.08,2013-06-04 05:57:00,
2013-06-04 02:02:00,55.6,55.1,30.03,NNE,22,5.4,5.4,98,0.00,,CLR,0.00,VWS V12.08,2013-06-04 06:02:00,
2013-06-04 02:07:00,55.4,54.9,30.03,NNE,17,4.0,4.0,98,0.00,,CLR,0.00,VWS V12.08,2013-06-04 06:07:00,
2013-06-04 02:12:00,55.6,55.3,30.03,NNE,23,4.9,6.3,99,0.00,,CLR,0.00,VWS V12.08,2013-06-04 06:12:00,
2013-06-04 02:17:00,55.4,55.4,30.03,NE,46,4.0,7.2,100,0.00,,CLR,0.00,VWS V12.08,2013-06-04 06:17:00,
2013-06-04 02:22:00,54.7,54.7,30.03,NNE,22,5.8,6.3,100,0.00,,CLR,0.00,VWS V12.08,2013-06-04 06:22:00,
2013-06-04 02:27:00,54.5,54.3,30.03,NE,48,5.8,5.8,99,0.00,,CLR,0.00,VWS V12.08,2013-06-04 06:27:00,
2013-06-04 02:32:00,54.0,53.2,30.03,NE,44,4.9,5.4,97,0.00,,CLR,0.00,VWS V12.08,2013-06-04 06:32:00,
2013-06-04 02:37:00,53.5,51.8,30.03,North,8,4.9,4.9,94,0.00,,CLR,0.00,VWS V12.08,2013-06-04 06:37:00,
2013-06-04 02:42:00,53.1,50.8,30.03,NNE,33,5.8,5.8,92,0.00,,CLR,0.00,VWS V12.08,2013-06-04 06:42:00,
2013-06-04 02:47:00,52.7,50.5,30.03,NNE,18,3.1,5.4,92,0.00,,CLR,0.00,VWS V12.08,2013-06-04 06:47:00,
2013-06-04 02:52:00,52.6,49.7,30.03,NE,47,4.0,5.8,90,0.00,,CLR,0.00,VWS V12.08,2013-06-04 06:52:00,
2013-06-04 02:57:00,52.2,48.8,30.03,NE,37,3.1,4.0,88,0.00,,CLR,0.00,VWS V12.08,2013-06-04 06:57:00,
2013-06-04 03:02:00,52.2,48.8,30.03,NE,36,0.0,3.6,88,0.00,,,0.00,VWS V12.08,2013-06-04 07:02:00,
2013-06-04 03:07:00,52.2,49.1,30.03,NE,37,0.0,0.0,89,0.00,,,0.00,VWS V12.08,2013-06-04 07:07:00,
2013-06-04 03:12:00,52.2,48.8,30.03,NE,37,0.0,0.0,88,0.00,,,0.00,VWS V12.08,2013-06-04 07:12:00,
2013-06-04 03:17:00,52.0,48.9,30.03,NE,37,0.0,0.0,89,0.00,,,0.00,VWS V12.08,2013-06-04 07:17:00,
2013-06-04 03:22:00,51.8,48.7,30.03,NE,37,0.0,0.0,89,0.00,,,0.00,VWS V12.08,2013-06-04 07:22:00,
2013-06-04 03:27:00,51.7,48.5,30.03,NE,37,0.0,0.0,89,0.00,,,0.00,VWS V12.08,2013-06-04 07:27:00,
2013-06-04 03:32:00,51.5,48.3,30.03,NE,37,0.0,0.0,89,0.00,,,0.00,VWS V12.08,2013-06-04 07:32:00,
2013-06-04 03:37:00,51.3,48.2,30.03,NE,37,0.0,0.0,89,0.00,,,0.00,VWS V12.08,2013-06-04 07:37:00,
2013-06-04 03:42:00,51.1,48.0,30.03,NE,34,2.2,2.7,89,0.00,,,0.00,VWS V12.08,2013-06-04 07:42:00,
2013-06-04 03:47:00,50.9,48.1,30.06,NE,34,0.0,0.0,90,0.00,,,0.00,VWS V12.08,2013-06-04 07:47:00,
2013-06-04 03:52:00,50.8,47.9,30.06,NE,34,0.0,0.0,90,0.00,,,0.00,VWS V12.08,2013-06-04 07:52:00,
2013-06-04 03:57:00,50.6,47.8,30.06,NE,34,2.2,2.2,90,0.00,,,0.00,VWS V12.08,2013-06-04 07:57:00,
2013-06-04 04:02:00,50.6,48.0,30.06,NE,34,0.0,0.0,91,0.00,,CLR,0.00,VWS V12.08,2013-06-04 08:02:00,
2013-06-04 04:07:00,50.6,48.0,30.06,NE,34,0.0,2.7,91,0.00,,CLR,0.00,VWS V12.08,2013-06-04 08:07:00,
2013-06-04 04:12:00,50.4,47.9,30.06,NE,55,0.0,0.0,91,0.00,,CLR,0.00,VWS V12.08,2013-06-04 08:12:00,
2013-06-04 04:17:00,50.2,47.7,30.06,NE,55,0.0,0.0,91,0.00,,CLR,0.00,VWS V12.08,2013-06-04 08:17:00,
2013-06-04 04:22:00,50.2,47.7,30.06,NE,55,0.0,0.0,91,0.00,,CLR,0.00,VWS V12.08,2013-06-04 08:22:00,
2013-06-04 04:27:00,50.2,47.7,30.06,NE,55,0.0,0.0,91,0.00,,CLR,0.00,VWS V12.08,2013-06-04 08:27:00,
2013-06-04 04:32:00,50.2,47.7,30.06,NE,55,0.0,0.0,91,0.00,,CLR,0.00,VWS V12.08,2013-06-04 08:32:00,
2013-06-04 04:37:00,50.0,47.5,30.06,NE,55,0.0,0.0,91,0.00,,CLR,0.00,VWS V12.08,2013-06-04 08:37:00,
2013-06-04 04:42:00,49.9,47.3,30.06,NE,55,0.0,0.0,91,0.00,,CLR,0.00,VWS V12.08,2013-06-04 08:42:00,
2013-06-04 04:47:00,49.7,47.2,30.06,NE,55,0.0,0.0,91,0.00,,CLR,0.00,VWS V12.08,2013-06-04 08:47:00,
2013-06-04 04:52:00,49.7,47.2,30.06,NE,55,0.0,0.0,91,0.00,,CLR,0.00,VWS V12.08,2013-06-04 08:52:00,
2013-06-04 04:57:00,49.5,47.0,30.06,NE,55,0.0,0.0,91,0.00,,CLR,0.00,VWS V12.08,2013-06-04 08:57:00,
2013-06-04 05:02:00,49.5,47.0,30.06,NE,55,0.0,0.0,91,0.00,,CLR,0.00,VWS V12.08,2013-06-04 09:02:00,
2013-06-04 05:07:00,49.3,47.1,30.06,NE,55,0.0,0.0,92,0.00,,CLR,0.00,VWS V12.08,2013-06-04 09:07:00,
2013-06-04 05:12:00,49.1,46.9,30.06,NE,55,2.7,3.1,92,0.00,,CLR,0.00,VWS V12.08,2013-06-04 09:12:00,
2013-06-04 05:17:00,49.0,46.7,30.06,NE,55,0.0,2.7,92,0.00,,CLR,0.00,VWS V12.08,2013-06-04 09:17:00,
2013-06-04 05:22:00,49.0,46.7,30.06,NE,55,0.0,0.0,92,0.00,,CLR,0.00,VWS V12.08,2013-06-04 09:22:00,
2013-06-04 05:27:00,48.8,46.6,30.06,NE,55,0.0,0.0,92,0.00,,CLR,0.00,VWS V12.08,2013-06-04 09:27:00,
2013-06-04 05:32:00,48.8,46.8,30.06,NE,55,0.0,0.0,93,0.00,,CLR,0.00,VWS V12.08,2013-06-04 09:32:00,
2013-06-04 05:37:00,48.8,46.8,30.06,NE,55,0.0,0.0,93,0.00,,CLR,0.00,VWS V12.08,2013-06-04 09:37:00,
2013-06-04 05:42:00,48.6,46.7,30.06,NE,55,0.0,0.0,93,0.00,,CLR,0.00,VWS V12.08,2013-06-04 09:42:00,
2013-06-04 05:47:00,48.6,46.7,30.06,NE,55,0.0,0.0,93,0.00,,CLR,0.00,VWS V12.08,2013-06-04 09:47:00,
2013-06-04 05:52:00,48.6,46.7,30.06,NE,55,0.0,0.0,93,0.00,,CLR,0.00,VWS V12.08,2013-06-04 09:52:00,
2013-06-04 05:57:00,48.6,46.7,30.06,NE,55,0.0,0.0,93,0.00,,CLR,0.00,VWS V12.08,2013-06-04 09:57:00,
2013-06-04 06:02:00,48.6,46.7,30.06,NE,55,0.0,0.0,93,0.00,,CLR,0.00,VWS V12.08,2013-06-04 10:02:00,
2013-06-04 06:07:00,48.4,46.5,30.06,NE,55,0.0,0.0,93,0.00,,CLR,0.00,VWS V12.08,2013-06-04 10:07:00,
2013-06-04 06:12:00,48.4,46.5,30.06,NE,55,0.0,0.0,93,0.00,,CLR,0.00,VWS V12.08,2013-06-04 10:12:00,
2013-06-04 06:17:00,48.6,46.7,30.09,NE,55,0.0,0.0,93,0.00,,CLR,0.00,VWS V12.08,2013-06-04 10:17:00,
2013-06-04 06:22:00,48.6,46.7,30.09,NE,55,0.0,0.0,93,0.00,,CLR,0.00,VWS V12.08,2013-06-04 10:22:00,
2013-06-04 06:27:00,49.1,47.2,30.09,NE,55,0.0,0.0,93,0.00,,CLR,0.00,VWS V12.08,2013-06-04 10:27:00,
2013-06-04 06:32:00,49.7,47.7,30.09,NE,55,2.7,2.7,93,0.00,,CLR,0.00,VWS V12.08,2013-06-04 10:32:00,
2013-06-04 06:37:00,50.0,47.8,30.09,NE,55,0.0,2.7,92,0.00,,CLR,0.00,VWS V12.08,2013-06-04 10:37:00,
2013-06-04 06:42:00,50.0,46.0,30.09,NE,55,2.2,2.7,86,0.00,,CLR,0.00,VWS V12.08,2013-06-04 10:42:00,
2013-06-04 06:47:00,50.4,45.1,30.09,NNE,33,2.2,3.6,82,0.00,,CLR,0.00,VWS V12.08,2013-06-04 10:47:00,
2013-06-04 06:52:00,50.6,44.3,30.09,ENE,64,3.6,4.0,79,0.00,,CLR,0.00,VWS V12.08,2013-06-04 10:52:00,
2013-06-04 06:57:00,50.9,44.0,30.09,NE,51,2.2,3.6,77,0.00,,CLR,0.00,VWS V12.08,2013-06-04 10:57:00,
2013-06-04 07:02:00,51.5,44.2,30.09,NNE,33,2.7,3.1,76,0.00,,CLR,0.00,VWS V12.08,2013-06-04 11:02:00,
2013-06-04 07:07:00,51.7,42.6,30.09,NE,39,4.0,4.5,71,0.00,,CLR,0.00,VWS V12.08,2013-06-04 11:07:00,
2013-06-04 07:12:00,52.2,42.7,30.09,ENE,62,3.1,3.6,70,0.00,,CLR,0.00,VWS V12.08,2013-06-04 11:12:00,
2013-06-04 07:17:00,52.4,42.9,30.09,ENE,62,0.0,3.1,70,0.00,,CLR,0.00,VWS V12.08,2013-06-04 11:17:00,
2013-06-04 07:22:00,53.6,44.8,30.09,ENE,62,0.0,0.0,72,0.00,,CLR,0.00,VWS V12.08,2013-06-04 11:22:00,
2013-06-04 07:27:00,54.4,45.2,30.09,ENE,62,0.0,0.0,71,0.00,,CLR,0.00,VWS V12.08,2013-06-04 11:27:00,
2013-06-04 07:32:00,55.3,45.7,30.09,ENE,62,0.0,0.0,70,0.00,,CLR,0.00,VWS V12.08,2013-06-04 11:32:00,
2013-06-04 07:37:00,55.4,43.9,30.09,ENE,62,2.2,3.1,65,0.00,,CLR,0.00,VWS V12.08,2013-06-04 11:37:00,
2013-06-04 07:42:00,55.4,42.2,30.09,NNE,29,3.1,3.1,61,0.00,,CLR,0.00,VWS V12.08,2013-06-04 11:42:00,
2013-06-04 07:47:00,55.8,41.3,30.09,NNE,29,0.0,0.0,58,0.00,,CLR,0.00,VWS V12.08,2013-06-04 11:47:00,
2013-06-04 07:52:00,56.0,41.4,30.09,NNE,21,2.2,3.6,58,0.00,,CLR,0.00,VWS V12.08,2013-06-04 11:52:00,
2013-06-04 07:57:00,56.3,41.8,30.09,ENE,59,3.1,4.0,58,0.00,,CLR,0.00,VWS V12.08,2013-06-04 11:57:00,
2013-06-04 08:02:00,57.4,43.7,30.09,NNE,18,0.0,2.7,60,0.00,,CLR,0.00,VWS V12.08,2013-06-04 12:02:00,
2013-06-04 08:07:00,57.8,42.2,30.09,NE,44,0.0,3.1,56,0.00,,CLR,0.00,VWS V12.08,2013-06-04 12:07:00,
2013-06-04 08:12:00,57.8,40.3,30.09,NE,42,3.1,4.0,52,0.00,,CLR,0.00,VWS V12.08,2013-06-04 12:12:00,
2013-06-04 08:17:00,57.4,40.9,30.11,NNE,22,3.6,4.0,54,0.00,,CLR,0.00,VWS V12.08,2013-06-04 12:17:00,
2013-06-04 08:22:00,57.2,41.2,30.11,North,7,2.2,3.6,55,0.00,,CLR,0.00,VWS V12.08,2013-06-04 12:22:00,
2013-06-04 08:27:00,57.2,40.8,30.11,NE,56,5.4,5.4,54,0.00,,CLR,0.00,VWS V12.08,2013-06-04 12:27:00,
2013-06-04 08:32:00,57.4,40.9,30.11,NNE,22,3.1,4.9,54,0.00,,CLR,0.00,VWS V12.08,2013-06-04 12:32:00,
2013-06-04 08:38:00,58.7,42.6,30.11,North,0,2.7,3.6,55,0.00,,CLR,0.00,VWS V12.08,2013-06-04 12:38:00,
2013-06-04 08:43:00,59.6,39.3,30.11,NE,45,0.0,5.4,47,0.00,,CLR,0.00,VWS V12.08,2013-06-04 12:43:00,
2013-06-04 08:47:00,59.9,39.7,30.11,NNW,345,3.1,4.5,47,0.00,,CLR,0.00,VWS V12.08,2013-06-04 12:47:00,
2013-06-04 08:53:00,60.5,41.8,30.11,NNE,18,2.7,2.7,50,0.00,,CLR,0.00,VWS V12.08,2013-06-04 12:53:00,
2013-06-04 08:58:00,61.2,40.3,30.11,North,4,2.7,5.4,46,0.00,,CLR,0.00,VWS V12.08,2013-06-04 12:58:00,
2013-06-04 09:02:00,60.8,40.0,30.11,NNE,17,4.0,5.4,46,0.00,,CLR,0.00,VWS V12.08,2013-06-04 13:02:00,
2013-06-04 09:08:00,61.2,39.1,30.11,NE,41,2.7,4.9,44,0.00,,CLR,0.00,VWS V12.08,2013-06-04 13:08:00,
2013-06-04 09:13:00,61.2,39.1,30.11,NNE,21,3.1,4.9,44,0.00,,CLR,0.00,VWS V12.08,2013-06-04 13:13:00,
2013-06-04 09:18:00,61.6,38.3,30.11,NE,45,4.0,5.8,42,0.00,,CLR,0.00,VWS V12.08,2013-06-04 13:18:00,
2013-06-04 09:23:00,62.3,39.5,30.11,NNE,14,0.0,4.9,43,0.00,,CLR,0.00,VWS V12.08,2013-06-04 13:23:00,
2013-06-04 09:28:00,63.2,39.7,30.11,ESE,111,2.7,5.4,42,0.00,,CLR,0.00,VWS V12.08,2013-06-04 13:28:00,
2013-06-04 09:33:00,63.4,36.7,30.11,North,357,2.7,8.7,37,0.00,,CLR,0.00,VWS V12.08,2013-06-04 13:33:00,
2013-06-04 09:38:00,63.4,37.3,30.11,NNE,12,0.0,4.9,38,0.00,,CLR,0.00,VWS V12.08,2013-06-04 13:38:00,
2013-06-04 09:43:00,63.5,38.2,30.11,NE,34,2.7,6.3,39,0.00,,CLR,0.00,VWS V12.08,2013-06-04 13:43:00,
2013-06-04 09:48:00,63.4,37.3,30.11,ENE,75,2.7,7.6,38,0.00,,CLR,0.00,VWS V12.08,2013-06-04 13:48:00,
2013-06-04 09:53:00,64.1,37.3,30.11,North,2,4.9,5.8,37,0.00,,CLR,0.00,VWS V12.08,2013-06-04 13:53:00,
2013-06-04 09:58:00,64.6,37.8,30.11,NE,38,5.4,8.1,37,0.00,,CLR,0.00,VWS V12.08,2013-06-04 13:58:00,
2013-06-04 10:03:00,64.3,36.0,30.11,North,1,7.6,8.1,35,0.00,,CLR,0.00,VWS V12.08,2013-06-04 14:03:00,
2013-06-04 10:08:00,64.1,36.6,30.11,NNE,23,6.3,8.1,36,0.00,,CLR,0.00,VWS V12.08,2013-06-04 14:08:00,
2013-06-04 10:13:00,64.3,38.1,30.11,NNE,17,6.3,6.7,38,0.00,,CLR,0.00,VWS V12.08,2013-06-04 14:13:00,
2013-06-04 10:18:00,65.5,37.2,30.11,North,2,4.0,7.6,35,0.00,,CLR,0.00,VWS V12.08,2013-06-04 14:18:00,
2013-06-04 10:23:00,64.6,35.6,30.11,NNE,15,6.3,12.3,34,0.00,,CLR,0.00,VWS V12.08,2013-06-04 14:23:00,
2013-06-04 10:28:00,65.5,37.2,30.11,NE,49,5.4,8.7,35,0.00,,CLR,0.00,VWS V12.08,2013-06-04 14:28:00,
2013-06-04 10:33:00,65.3,36.3,30.11,NE,54,5.8,10.1,34,0.00,,CLR,0.00,VWS V12.08,2013-06-04 14:33:00,
2013-06-04 10:38:00,65.5,37.2,30.11,NNE,24,5.4,6.3,35,0.00,,CLR,0.00,VWS V12.08,2013-06-04 14:38:00,
2013-06-04 10:43:00,65.0,36.0,30.11,NNE,25,8.1,9.2,34,0.00,,CLR,0.00,VWS V12.08,2013-06-04 14:43:00,
2013-06-04 10:48:00,65.2,36.8,30.11,NE,42,8.7,8.7,35,0.00,,CLR,0.00,VWS V12.08,2013-06-04 14:48:00,
2013-06-04 10:53:00,64.6,35.6,30.11,NNE,19,9.2,9.2,34,0.00,,CLR,0.00,VWS V12.08,2013-06-04 14:53:00,
2013-06-04 10:58:00,65.3,37.0,30.11,NE,49,5.4,5.4,35,0.00,,CLR,0.00,VWS V12.08,2013-06-04 14:58:00,
2013-06-04 11:03:00,66.4,37.2,30.11,NE,54,5.4,5.8,34,0.00,,CLR,0.00,VWS V12.08,2013-06-04 15:03:00,
2013-06-04 11:08:00,66.6,36.6,30.11,NNE,31,7.6,7.6,33,0.00,,CLR,0.00,VWS V12.08,2013-06-04 15:08:00,
2013-06-04 11:13:00,66.4,36.5,30.11,ENE,71,5.4,5.8,33,0.00,,CLR,0.00,VWS V12.08,2013-06-04 15:13:00,
2013-06-04 11:18:00,66.1,36.2,30.11,North,0,5.8,8.7,33,0.00,,CLR,0.00,VWS V12.08,2013-06-04 15:18:00,
2013-06-04 11:23:00,66.8,36.8,30.11,NE,54,5.8,6.3,33,0.00,,CLR,0.00,VWS V12.08,2013-06-04 15:23:00,
2013-06-04 11:28:00,65.9,35.2,30.11,NNE,14,5.4,10.5,32,0.00,,CLR,0.00,VWS V12.08,2013-06-04 15:28:00,
2013-06-04 11:33:00,66.4,36.5,30.11,ENE,65,2.2,5.8,33,0.00,,CLR,0.00,VWS V12.08,2013-06-04 15:33:00,
2013-06-04 11:38:00,68.0,37.9,30.11,NNE,23,6.3,6.3,33,0.00,,CLR,0.00,VWS V12.08,2013-06-04 15:38:00,
2013-06-04 11:43:00,70.0,38.8,30.11,ENE,71,3.6,5.4,32,0.00,,CLR,0.00,VWS V12.08,2013-06-04 15:43:00,
2013-06-04 11:48:00,71.3,39.9,30.11,ESE,114,3.1,4.0,32,0.00,,CLR,0.00,VWS V12.08,2013-06-04 15:48:00,
2013-06-04 11:53:00,70.4,39.2,30.11,NE,52,6.7,8.1,32,0.00,,CLR,0.00,VWS V12.08,2013-06-04 15:53:00,
2013-06-04 11:58:00,68.0,37.1,30.11,North,6,5.4,5.8,32,0.00,,CLR,0.00,VWS V12.08,2013-06-04 15:58:00,
2013-06-04 12:03:00,68.2,37.3,30.11,NE,51,4.9,8.7,32,0.00,,CLR,0.00,VWS V12.08,2013-06-04 16:03:00,
2013-06-04 12:08:00,68.4,35.8,30.11,NE,49,4.9,8.7,30,0.00,,CLR,0.00,VWS V12.08,2013-06-04 16:08:00,
2013-06-04 12:13:00,69.1,38.8,30.11,NNE,23,2.7,2.7,33,0.00,,CLR,0.00,VWS V12.08,2013-06-04 16:13:00,
2013-06-04 12:18:00,69.7,38.5,30.09,NE,46,4.0,5.8,32,0.00,,CLR,0.00,VWS V12.08,2013-06-04 16:18:00,
2013-06-04 12:23:00,69.1,38.0,30.09,North,353,3.1,8.3,32,0.00,,CLR,0.00,VWS V12.08,2013-06-04 16:23:00,
2013-06-04 12:28:00,67.5,36.6,30.09,NNE,32,5.8,11.0,32,0.00,,CLR,0.00,VWS V12.08,2013-06-04 16:28:00,
2013-06-04 12:33:00,67.0,36.2,30.09,NNE,19,8.1,8.1,32,0.00,,CLR,0.00,VWS V12.08,2013-06-04 16:33:00,
2013-06-04 12:38:00,67.3,36.5,30.09,NNE,16,5.8,10.1,32,0.00,,CLR,0.00,VWS V12.08,2013-06-04 16:38:00,
2013-06-04 12:43:00,67.7,36.8,30.09,NNE,23,4.9,7.6,32,0.00,,CLR,0.00,VWS V12.08,2013-06-04 16:43:00,
2013-06-04 12:48:00,69.3,39.0,30.09,NE,51,2.7,4.9,33,0.00,,CLR,0.00,VWS V12.08,2013-06-04 16:48:00,
2013-06-04 12:53:00,68.9,37.9,30.09,NE,36,3.1,8.1,32,0.00,,CLR,0.00,VWS V12.08,2013-06-04 16:53:00,
2013-06-04 12:58:00,70.6,39.3,30.09,NNW,331,0.0,3.6,32,0.00,,CLR,0.00,VWS V12.08,2013-06-04 16:58:00,
2013-06-04 13:03:00,70.9,39.6,30.09,NNE,15,2.7,8.1,32,0.00,,CLR,0.00,VWS V12.08,2013-06-04 17:03:00,
2013-06-04 13:08:00,70.2,39.0,30.09,NE,46,4.9,6.3,32,0.00,,CLR,0.00,VWS V12.08,2013-06-04 17:08:00,
2013-06-04 13:13:00,70.9,37.1,30.09,NNE,20,5.4,6.3,29,0.00,,CLR,0.00,VWS V12.08,2013-06-04 17:13:00,
2013-06-04 13:18:00,71.3,39.1,30.09,East,92,0.0,5.4,31,0.00,,CLR,0.00,VWS V12.08,2013-06-04 17:18:00,
2013-06-04 13:23:00,72.2,39.9,30.09,ENE,57,3.6,4.9,31,0.00,,CLR,0.00,VWS V12.08,2013-06-04 17:23:00,
2013-06-04 13:28:00,72.2,39.9,30.09,North,350,3.1,4.0,31,0.00,,CLR,0.00,VWS V12.08,2013-06-04 17:28:00,
2013-06-04 13:33:00,72.0,38.0,30.09,NW,310,3.1,3.1,29,0.00,,CLR,0.00,VWS V12.08,2013-06-04 17:33:00,
2013-06-04 13:38:00,72.5,40.2,30.09,NNE,19,6.3,6.3,31,0.00,,CLR,0.00,VWS V12.08,2013-06-04 17:38:00,
2013-06-04 13:43:00,69.5,38.4,30.09,NE,53,5.4,8.7,32,0.00,,CLR,0.00,VWS V12.08,2013-06-04 17:43:00,
2013-06-04 13:48:00,70.6,39.3,30.09,ENE,63,4.0,5.4,32,0.00,,CLR,0.00,VWS V12.08,2013-06-04 17:48:00,
2013-06-04 13:53:00,71.5,39.3,30.09,ENE,76,2.7,6.3,31,0.00,,CLR,0.00,VWS V12.08,2013-06-04 17:53:00,
2013-06-04 14:00:00,72.5,41.8,30.09,South,170,0.0,2.7,33,0.00,,CLR,0.00,VWS V12.08,2013-06-04 18:00:00,
2013-06-04 14:15:00,72.9,40.5,30.09,SE,139,0.0,4.0,31,0.00,,CLR,0.00,VWS V12.08,2013-06-04 18:15:00,
2013-06-04 14:30:00,72.2,38.2,30.09,SE,137,3.6,7.6,29,0.00,,CLR,0.00,VWS V12.08,2013-06-04 18:30:00,
2013-06-04 14:45:00,74.0,38.8,30.09,NE,55,4.0,5.8,28,0.00,,CLR,0.00,VWS V12.08,2013-06-04 18:45:00,
2013-06-04 14:57:00,73.1,38.1,30.09,NNE,12,0.0,4.0,28,0.00,,CLR,0.00,VWS V12.08,2013-06-04 18:57:00,
2013-06-04 15:02:00,72.4,38.3,30.09,East,96,4.9,6.3,29,0.00,,CLR,0.00,VWS V12.08,2013-06-04 19:02:00,
2013-06-04 15:07:00,72.9,37.9,30.09,ENE,64,5.8,5.8,28,0.00,,CLR,0.00,VWS V12.08,2013-06-04 19:07:00,
2013-06-04 15:12:00,72.5,38.5,30.09,ESE,120,3.6,6.3,29,0.00,,CLR,0.00,VWS V12.08,2013-06-04 19:12:00,
2013-06-04 15:17:00,73.1,38.1,30.09,South,191,2.7,4.0,28,0.00,,CLR,0.00,VWS V12.08,2013-06-04 19:17:00,
2013-06-04 15:22:00,73.6,38.5,30.09,NE,52,7.6,7.6,28,0.00,,CLR,0.00,VWS V12.08,2013-06-04 19:22:00,
2013-06-04 15:27:00,72.9,37.9,30.09,NE,47,3.1,7.2,28,0.00,,CLR,0.00,VWS V12.08,2013-06-04 19:27:00,
2013-06-04 15:32:00,72.7,38.7,30.09,SE,140,0.0,4.9,29,0.00,,CLR,0.00,VWS V12.08,2013-06-04 19:32:00,
2013-06-04 15:37:00,73.3,38.2,30.09,SE,130,2.2,2.7,28,0.00,,CLR,0.00,VWS V12.08,2013-06-04 19:37:00,
2013-06-04 15:42:00,73.8,41.3,30.09,SE,142,2.2,3.6,31,0.00,,CLR,0.00,VWS V12.08,2013-06-04 19:42:00,
2013-06-04 15:47:00,73.8,38.7,30.09,NE,48,6.3,6.3,28,0.00,,CLR,0.00,VWS V12.08,2013-06-04 19:47:00,
2013-06-04 15:52:00,73.3,38.2,30.09,East,90,4.5,6.3,28,0.00,,CLR,0.00,VWS V12.08,2013-06-04 19:52:00,
2013-06-04 15:57:00,72.2,39.9,30.09,NE,50,5.8,7.6,31,0.00,,CLR,0.00,VWS V12.08,2013-06-04 19:57:00,
2013-06-04 16:02:00,71.1,37.3,30.06,SE,129,2.7,4.9,29,0.00,,CLR,0.00,VWS V12.08,2013-06-04 20:02:00,
2013-06-04 16:07:00,71.6,37.7,30.06,East,90,2.2,4.0,29,0.00,,CLR,0.00,VWS V12.08,2013-06-04 20:07:00,
2013-06-04 16:12:00,72.4,40.0,30.06,NE,34,5.4,5.4,31,0.00,,CLR,0.00,VWS V12.08,2013-06-04 20:12:00,
2013-06-04 16:17:00,72.5,38.5,30.06,North,357,0.0,4.0,29,0.00,,CLR,0.00,VWS V12.08,2013-06-04 20:17:00,
2013-06-04 16:22:00,72.5,38.5,30.06,SE,139,2.7,5.8,29,0.00,,CLR,0.00,VWS V12.08,2013-06-04 20:22:00,
2013-06-04 16:27:00,72.2,38.2,30.06,NNE,18,3.1,4.0,29,0.00,,CLR,0.00,VWS V12.08,2013-06-04 20:27:00,
2013-06-04 16:32:00,71.8,37.9,30.06,NNE,19,3.6,4.0,29,0.00,,CLR,0.00,VWS V12.08,2013-06-04 20:32:00,
2013-06-04 16:37:00,71.8,37.9,30.06,NE,35,6.7,6.7,29,0.00,,CLR,0.00,VWS V12.08,2013-06-04 20:37:00,
2013-06-04 16:42:00,70.6,36.8,30.06,North,1,3.1,5.8,29,0.00,,CLR,0.00,VWS V12.08,2013-06-04 20:42:00,
2013-06-04 16:47:00,70.6,36.8,30.06,East,84,4.0,8.3,29,0.00,,CLR,0.00,VWS V12.08,2013-06-04 20:47:00,
2013-06-04 16:52:00,70.4,36.6,30.06,NNE,31,5.8,6.3,29,0.00,,CLR,0.00,VWS V12.08,2013-06-04 20:52:00,
2013-06-04 16:57:00,70.4,39.2,30.06,NE,54,0.0,4.0,32,0.00,,CLR,0.00,VWS V12.08,2013-06-04 20:57:00,
2013-06-04 17:02:00,70.4,39.2,30.06,ENE,57,2.2,5.8,32,0.00,,CLR,0.00,VWS V12.08,2013-06-04 21:02:00,
2013-06-04 17:07:00,70.6,39.3,30.06,NE,55,10.5,10.5,32,0.00,,CLR,0.00,VWS V12.08,2013-06-04 21:07:00,
2013-06-04 17:12:00,70.0,38.8,30.06,NNE,32,8.1,8.1,32,0.00,,CLR,0.00,VWS V12.08,2013-06-04 21:12:00,
2013-06-04 17:17:00,69.7,38.5,30.06,NNE,25,5.8,5.8,32,0.00,,CLR,0.00,VWS V12.08,2013-06-04 21:17:00,
2013-06-04 17:22:00,69.7,38.5,30.06,ESE,116,3.6,6.3,32,0.00,,CLR,0.00,VWS V12.08,2013-06-04 21:22:00,
2013-06-04 17:27:00,69.5,38.4,30.06,ESE,110,4.0,5.8,32,0.00,,CLR,0.00,VWS V12.08,2013-06-04 21:27:00,
2013-06-04 17:32:00,69.5,38.4,30.06,NE,54,3.6,4.9,32,0.00,,CLR,0.00,VWS V12.08,2013-06-04 21:32:00,
2013-06-04 17:37:00,69.7,38.5,30.06,North,8,2.2,4.0,32,0.00,,CLR,0.00,VWS V12.08,2013-06-04 21:37:00,
2013-06-04 17:42:00,69.7,38.5,30.06,NE,41,3.1,3.6,32,0.00,,CLR,0.00,VWS V12.08,2013-06-04 21:42:00,
2013-06-04 17:47:00,69.7,38.5,30.06,South,187,0.0,3.1,32,0.00,,CLR,0.00,VWS V12.08,2013-06-04 21:47:00,
2013-06-04 17:52:00,69.7,38.5,30.06,NE,41,3.6,3.6,32,0.00,,CLR,0.00,VWS V12.08,2013-06-04 21:52:00,
2013-06-04 17:57:00,69.5,38.4,30.06,WNW,297,0.0,4.0,32,0.00,,CLR,0.00,VWS V12.08,2013-06-04 21:57:00,
2013-06-04 18:02:00,69.3,38.2,30.06,NNE,26,3.1,4.9,32,0.00,,CLR,0.00,VWS V12.08,2013-06-04 22:02:00,
2013-06-04 18:07:00,69.1,38.0,30.06,NE,51,3.1,5.8,32,0.00,,CLR,0.00,VWS V12.08,2013-06-04 22:07:00,
2013-06-04 18:12:00,68.6,37.6,30.06,ENE,65,4.0,5.4,32,0.00,,CLR,0.00,VWS V12.08,2013-06-04 22:12:00,
2013-06-04 18:17:00,68.6,37.6,30.06,NNE,27,5.8,5.8,32,0.00,,CLR,0.00,VWS V12.08,2013-06-04 22:17:00,
2013-06-04 18:22:00,68.4,37.4,30.06,NE,34,2.7,5.4,32,0.00,,CLR,0.00,VWS V12.08,2013-06-04 22:22:00,
2013-06-04 18:27:00,68.4,37.4,30.06,NE,34,0.0,0.0,32,0.00,,CLR,0.00,VWS V12.08,2013-06-04 22:27:00,
2013-06-04 18:32:00,68.4,37.4,30.06,NNE,31,4.0,4.0,32,0.00,,CLR,0.00,VWS V12.08,2013-06-04 22:32:00,
2013-06-04 18:37:00,68.4,37.4,30.06,NNW,343,0.0,0.0,32,0.00,,CLR,0.00,VWS V12.08,2013-06-04 22:37:00,
2013-06-04 18:42:00,68.2,37.3,30.06,NNE,21,4.0,5.4,32,0.00,,CLR,0.00,VWS V12.08,2013-06-04 22:42:00,
2013-06-04 18:47:00,68.2,37.3,30.06,NNE,16,4.0,5.4,32,0.00,,CLR,0.00,VWS V12.08,2013-06-04 22:47:00,
2013-06-04 18:52:00,67.9,37.7,30.06,NNE,25,4.9,5.8,33,0.00,,CLR,0.00,VWS V12.08,2013-06-04 22:52:00,
2013-06-04 18:57:00,67.7,37.6,30.06,NNE,28,4.0,6.3,33,0.00,,CLR,0.00,VWS V12.08,2013-06-04 22:57:00,
2013-06-04 19:02:00,67.5,37.4,30.06,NNE,15,4.5,4.5,33,0.00,,CLR,0.00,VWS V12.08,2013-06-04 23:02:00,
2013-06-04 19:07:00,67.3,38.0,30.06,North,8,3.1,5.4,34,0.00,,CLR,0.00,VWS V12.08,2013-06-04 23:07:00,
2013-06-04 19:12:00,67.1,37.9,30.06,NE,40,3.1,3.6,34,0.00,,CLR,0.00,VWS V12.08,2013-06-04 23:12:00,
2013-06-04 19:17:00,67.0,37.7,30.06,NNE,33,3.1,5.8,34,0.00,,CLR,0.00,VWS V12.08,2013-06-04 23:17:00,
2013-06-04 19:22:00,66.8,38.3,30.06,NE,39,3.6,8.1,35,0.00,,CLR,0.00,VWS V12.08,2013-06-04 23:22:00,
2013-06-04 19:27:00,66.8,38.3,30.06,NE,50,2.7,3.6,35,0.00,,CLR,0.00,VWS V12.08,2013-06-04 23:27:00,
2013-06-04 19:32:00,66.8,38.3,30.06,NE,39,6.7,8.1,35,0.00,,CLR,0.00,VWS V12.08,2013-06-04 23:32:00,
2013-06-04 19:37:00,66.6,38.1,30.06,NE,43,4.9,4.9,35,0.00,,CLR,0.00,VWS V12.08,2013-06-04 23:37:00,
2013-06-04 19:42:00,66.4,38.7,30.06,NNE,27,3.1,4.0,36,0.00,,CLR,0.00,VWS V12.08,2013-06-04 23:42:00,
2013-06-04 19:47:00,66.2,39.2,30.06,NNE,18,3.6,3.6,37,0.00,,CLR,0.00,VWS V12.08,2013-06-04 23:47:00,
2013-06-04 19:52:00,66.1,39.1,30.06,North,11,2.7,6.3,37,0.00,,CLR,0.00,VWS V12.08,2013-06-04 23:52:00,
2013-06-04 19:57:00,65.9,39.6,30.06,ENE,77,4.0,5.8,38,0.00,,CLR,0.00,VWS V12.08,2013-06-04 23:57:00,
2013-06-04 20:02:00,65.7,39.4,30.06,NE,35,3.1,5.8,38,0.00,,CLR,0.00,VWS V12.08,2013-06-05 00:02:00,
2013-06-04 20:07:00,65.5,40.6,30.06,NNE,31,3.6,4.5,40,0.00,,CLR,0.00,VWS V12.08,2013-06-05 00:07:00,
2013-06-04 20:12:00,65.3,40.4,30.06,NNE,29,3.6,7.2,40,0.00,,CLR,0.00,VWS V12.08,2013-06-05 00:12:00,
2013-06-04 20:17:00,65.2,40.3,30.06,NE,44,2.7,4.0,40,0.00,,CLR,0.00,VWS V12.08,2013-06-05 00:17:00,
2013-06-04 20:22:00,64.8,41.2,30.06,NNE,31,2.7,3.6,42,0.00,,CLR,0.00,VWS V12.08,2013-06-05 00:22:00,
2013-06-04 20:27:00,64.4,41.5,30.06,NE,34,4.0,4.0,43,0.00,,CLR,0.00,VWS V12.08,2013-06-05 00:27:00,
2013-06-04 20:32:00,64.3,41.3,30.09,NE,42,3.1,4.0,43,0.00,,CLR,0.00,VWS V12.08,2013-06-05 00:32:00,
2013-06-04 20:37:00,63.9,41.0,30.09,NNE,25,3.1,3.1,43,0.00,,CLR,0.00,VWS V12.08,2013-06-05 00:37:00,
2013-06-04 20:42:00,63.5,41.3,30.09,NE,49,0.0,0.0,44,0.00,,CLR,0.00,VWS V12.08,2013-06-05 00:42:00,
2013-06-04 20:47:00,63.0,41.3,30.09,NE,49,0.0,0.0,45,0.00,,CLR,0.00,VWS V12.08,2013-06-05 00:47:00,
2013-06-04 20:52:00,62.5,40.9,30.09,NE,49,0.0,0.0,45,0.00,,CLR,0.00,VWS V12.08,2013-06-05 00:52:00,
2013-06-04 20:57:00,62.1,40.5,30.09,NE,49,0.0,0.0,45,0.00,,CLR,0.00,VWS V12.08,2013-06-05 00:57:00,
2013-06-04 21:02:00,61.7,40.8,30.09,NNE,16,0.0,0.0,46,0.00,,CLR,0.00,VWS V12.08,2013-06-05 01:02:00,
2013-06-04 21:07:00,61.4,40.4,30.09,NNE,16,0.0,0.0,46,0.00,,CLR,0.00,VWS V12.08,2013-06-05 01:07:00,
2013-06-04 21:12:00,61.0,41.7,30.09,NNE,16,0.0,0.0,49,0.00,,CLR,0.00,VWS V12.08,2013-06-05 01:12:00,
2013-06-04 21:17:00,60.8,41.6,30.09,NNE,16,0.0,0.0,49,0.00,,CLR,0.00,VWS V12.08,2013-06-05 01:17:00,
2013-06-04 21:23:00,60.5,41.2,30.09,NNE,25,0.0,0.0,49,0.00,,CLR,0.00,VWS V12.08,2013-06-05 01:23:00,
2013-06-04 21:28:00,60.1,40.9,30.09,NNE,25,2.7,3.1,49,0.00,,CLR,0.00,VWS V12.08,2013-06-05 01:28:00,
2013-06-04 21:33:00,59.6,41.5,30.09,NNE,32,0.0,2.7,51,0.00,,CLR,0.00,VWS V12.08,2013-06-05 01:33:00,
2013-06-04 21:38:00,59.2,42.6,30.09,North,4,2.7,3.1,54,0.00,,CLR,0.00,VWS V12.08,2013-06-05 01:38:00,
2013-06-04 21:43:00,59.0,42.9,30.09,NE,34,3.6,3.6,55,0.00,,CLR,0.00,VWS V12.08,2013-06-05 01:43:00,
2013-06-04 21:48:00,58.9,42.3,30.09,North,10,2.7,3.6,54,0.00,,CLR,0.00,VWS V12.08,2013-06-05 01:48:00,
2013-06-04 21:53:00,59.0,42.4,30.09,NNE,13,2.7,2.7,54,0.00,,CLR,0.00,VWS V12.08,2013-06-05 01:53:00,
2013-06-04 21:58:00,59.2,41.6,30.09,NNE,15,2.7,2.7,52,0.00,,CLR,0.00,VWS V12.08,2013-06-05 01:58:00,
2013-06-04 22:03:00,59.4,40.8,30.09,NNE,24,2.7,4.0,50,0.00,,CLR,0.00,VWS V12.08,2013-06-05 02:03:00,
2013-06-04 22:08:00,59.8,40.6,30.09,NE,51,4.0,4.0,49,0.00,,CLR,0.00,VWS V12.08,2013-06-05 02:08:00,
2013-06-04 22:13:00,59.9,40.8,30.09,East,99,2.7,3.6,49,0.00,,CLR,0.00,VWS V12.08,2013-06-05 02:13:00,
2013-06-04 22:18:00,60.1,40.9,30.09,NNE,12,3.1,3.6,49,0.00,,CLR,0.00,VWS V12.08,2013-06-05 02:18:00,
2013-06-04 22:23:00,60.1,40.9,30.09,North,5,0.0,3.6,49,0.00,,CLR,0.00,VWS V12.08,2013-06-05 02:23:00,
2013-06-04 22:28:00,60.1,40.9,30.09,NNE,22,0.0,2.7,49,0.00,,CLR,0.00,VWS V12.08,2013-06-05 02:28:00,
2013-06-04 22:33:00,59.9,40.8,30.09,North,11,2.2,3.6,49,0.00,,CLR,0.00,VWS V12.08,2013-06-05 02:33:00,
2013-06-04 22:38:00,59.8,41.1,30.09,NE,41,0.0,2.2,50,0.00,,CLR,0.00,VWS V12.08,2013-06-05 02:38:00,
2013-06-04 22:43:00,59.4,41.3,30.09,NE,43,0.0,0.0,51,0.00,,CLR,0.00,VWS V12.08,2013-06-05 02:43:00,
2013-06-04 22:48:00,59.2,40.6,30.09,North,353,2.7,2.7,50,0.00,,CLR,0.00,VWS V12.08,2013-06-05 02:48:00,
2013-06-04 22:53:00,59.2,40.6,30.09,NNE,16,0.0,4.9,50,0.00,,CLR,0.00,VWS V12.08,2013-06-05 02:53:00,
2013-06-04 22:58:00,59.0,41.0,30.09,NNE,16,0.0,0.0,51,0.00,,CLR,0.00,VWS V12.08,2013-06-05 02:58:00,
2013-06-04 23:03:00,58.7,41.1,30.09,NNE,16,0.0,0.0,52,0.00,,CLR,0.00,VWS V12.08,2013-06-05 03:03:00,
2013-06-04 23:08:00,58.3,41.3,30.09,NNE,16,0.0,0.0,53,0.00,,CLR,0.00,VWS V12.08,2013-06-05 03:08:00,
2013-06-04 23:13:00,58.0,41.4,30.09,NNE,16,0.0,0.0,54,0.00,,CLR,0.00,VWS V12.08,2013-06-05 03:13:00,
2013-06-04 23:18:00,57.8,41.3,30.09,NNE,16,0.0,0.0,54,0.00,,CLR,0.00,VWS V12.08,2013-06-05 03:18:00,
2013-06-04 23:23:00,57.6,41.1,30.09,NNE,16,0.0,0.0,54,0.00,,CLR,0.00,VWS V12.08,2013-06-05 03:23:00,
2013-06-04 23:28:00,57.4,41.4,30.09,NNE,16,0.0,0.0,55,0.00,,CLR,0.00,VWS V12.08,2013-06-05 03:28:00,
2013-06-04 23:33:00,57.2,41.2,30.09,NNE,16,0.0,0.0,55,0.00,,CLR,0.00,VWS V12.08,2013-06-05 03:33:00,
2013-06-04 23:38:00,57.1,41.1,30.09,NNE,16,0.0,0.0,55,0.00,,CLR,0.00,VWS V12.08,2013-06-05 03:38:00,
2013-06-04 23:43:00,56.7,41.7,30.09,NNE,16,0.0,0.0,57,0.00,,CLR,0.00,VWS V12.08,2013-06-05 03:43:00,
2013-06-04 23:48:00,56.3,42.2,30.09,NNE,16,0.0,0.0,59,0.00,,CLR,0.00,VWS V12.08,2013-06-05 03:48:00,
2013-06-04 23:53:00,55.8,42.1,30.09,NE,50,2.2,2.7,60,0.00,,CLR,0.00,VWS V12.08,2013-06-05 03:53:00,
2013-06-04 23:58:00,55.6,43.2,30.09,NE,50,0.0,0.0,63,0.00,,CLR,0.00,VWS V12.08,2013-06-05 03:58:00,